sensor_id;sensor_type;location;lat;lon;timestamp;P1;durP1;ratioP1;P2;durP2;ratioP2
13609;SDS011;6876;50.788;4.940;2023-09-07T00:01:11;11.43;;;8.93;;
13609;SDS011;6876;50.788;4.940;2023-09-07T00:03:58;9.95;;;8.95;;
13609;SDS011;6876;50.788;4.940;2023-09-07T00:06:45;10.25;;;9.30;;
13609;SDS011;6876;50.788;4.940;2023-09-07T00:09:34;11.75;;;9.88;;
13609;SDS011;6876;50.788;4.940;2023-09-07T00:12:21;12.10;;;10.10;;
13609;SDS011;6876;50.788;4.940;2023-09-07T00:15:09;12.00;;;10.77;;
13609;SDS011;6876;50.788;4.940;2023-09-07T00:17:57;12.52;;;11.35;;
13609;SDS011;6876;50.788;4.940;2023-09-07T00:20:44;12.07;;;10.85;;
13609;SDS011;6876;50.788;4.940;2023-09-07T00:23:31;11.70;;;10.60;;
13609;SDS011;6876;50.788;4.940;2023-09-07T00:26:20;11.85;;;10.65;;
13609;SDS011;6876;50.788;4.940;2023-09-07T00:29:07;10.73;;;9.63;;
13609;SDS011;6876;50.788;4.940;2023-09-07T00:31:54;12.50;;;11.30;;
13609;SDS011;6876;50.788;4.940;2023-09-07T00:34:42;13.23;;;11.10;;
13609;SDS011;6876;50.788;4.940;2023-09-07T00:37:29;14.45;;;13.05;;
13609;SDS011;6876;50.788;4.940;2023-09-07T00:40:16;13.93;;;12.27;;
13609;SDS011;6876;50.788;4.940;2023-09-07T00:43:05;13.10;;;11.90;;
13609;SDS011;6876;50.788;4.940;2023-09-07T00:45:52;14.63;;;12.60;;
13609;SDS011;6876;50.788;4.940;2023-09-07T00:48:40;13.27;;;12.05;;
13609;SDS011;6876;50.788;4.940;2023-09-07T00:51:27;13.55;;;12.30;;
13609;SDS011;6876;50.788;4.940;2023-09-07T00:54:15;14.40;;;12.97;;
13609;SDS011;6876;50.788;4.940;2023-09-07T00:57:04;17.05;;;13.20;;
13609;SDS011;6876;50.788;4.940;2023-09-07T00:59:54;14.35;;;12.90;;
13609;SDS011;6876;50.788;4.940;2023-09-07T01:02:42;13.65;;;12.38;;
13609;SDS011;6876;50.788;4.940;2023-09-07T01:05:32;13.95;;;12.55;;
13609;SDS011;6876;50.788;4.940;2023-09-07T01:08:29;13.73;;;11.85;;
13609;SDS011;6876;50.788;4.940;2023-09-07T01:11:19;13.90;;;12.50;;
13609;SDS011;6876;50.788;4.940;2023-09-07T01:14:08;11.93;;;10.80;;
13609;SDS011;6876;50.788;4.940;2023-09-07T01:16:57;16.10;;;12.13;;
13609;SDS011;6876;50.788;4.940;2023-09-07T01:19:44;12.63;;;11.35;;
13609;SDS011;6876;50.788;4.940;2023-09-07T01:22:36;13.27;;;12.07;;
13609;SDS011;6876;50.788;4.940;2023-09-07T01:25:24;14.93;;;13.48;;
13609;SDS011;6876;50.788;4.940;2023-09-07T01:28:13;14.05;;;12.60;;
13609;SDS011;6876;50.788;4.940;2023-09-07T01:31:01;16.35;;;14.30;;
13609;SDS011;6876;50.788;4.940;2023-09-07T01:33:48;15.07;;;13.57;;
13609;SDS011;6876;50.788;4.940;2023-09-07T01:36:35;16.85;;;13.77;;
13609;SDS011;6876;50.788;4.940;2023-09-07T01:39:24;13.27;;;12.05;;
13609;SDS011;6876;50.788;4.940;2023-09-07T01:42:12;15.38;;;13.63;;
13609;SDS011;6876;50.788;4.940;2023-09-07T01:44:59;13.43;;;12.10;;
13609;SDS011;6876;50.788;4.940;2023-09-07T01:47:46;15.65;;;13.38;;
13609;SDS011;6876;50.788;4.940;2023-09-07T01:50:33;15.85;;;14.45;;
13609;SDS011;6876;50.788;4.940;2023-09-07T01:53:21;20.13;;;18.40;;
13609;SDS011;6876;50.788;4.940;2023-09-07T01:56:10;22.43;;;20.30;;
13609;SDS011;6876;50.788;4.940;2023-09-07T01:58:57;17.98;;;16.25;;
13609;SDS011;6876;50.788;4.940;2023-09-07T02:01:44;17.77;;;16.05;;
13609;SDS011;6876;50.788;4.940;2023-09-07T02:04:32;20.17;;;18.58;;
13609;SDS011;6876;50.788;4.940;2023-09-07T02:07:19;20.98;;;18.98;;
13609;SDS011;6876;50.788;4.940;2023-09-07T02:10:06;19.65;;;18.00;;
13609;SDS011;6876;50.788;4.940;2023-09-07T02:12:56;17.30;;;15.95;;
13609;SDS011;6876;50.788;4.940;2023-09-07T02:15:43;15.70;;;14.25;;
13609;SDS011;6876;50.788;4.940;2023-09-07T02:18:31;14.18;;;12.98;;
13609;SDS011;6876;50.788;4.940;2023-09-07T02:21:19;14.93;;;13.60;;
13609;SDS011;6876;50.788;4.940;2023-09-07T02:24:06;15.10;;;13.70;;
13609;SDS011;6876;50.788;4.940;2023-09-07T02:26:53;15.30;;;13.93;;
13609;SDS011;6876;50.788;4.940;2023-09-07T02:29:42;17.13;;;15.83;;
13609;SDS011;6876;50.788;4.940;2023-09-07T02:32:29;13.60;;;12.20;;
13609;SDS011;6876;50.788;4.940;2023-09-07T02:35:17;13.17;;;11.83;;
13609;SDS011;6876;50.788;4.940;2023-09-07T02:38:05;13.43;;;12.15;;
13609;SDS011;6876;50.788;4.940;2023-09-07T02:40:52;20.00;;;18.47;;
13609;SDS011;6876;50.788;4.940;2023-09-07T02:43:41;15.90;;;14.40;;
13609;SDS011;6876;50.788;4.940;2023-09-07T02:46:29;15.90;;;14.50;;
13609;SDS011;6876;50.788;4.940;2023-09-07T02:49:17;15.43;;;12.37;;
13609;SDS011;6876;50.788;4.940;2023-09-07T02:52:04;13.43;;;12.23;;
13609;SDS011;6876;50.788;4.940;2023-09-07T02:54:52;13.23;;;12.00;;
13609;SDS011;6876;50.788;4.940;2023-09-07T02:57:39;13.33;;;12.03;;
13609;SDS011;6876;50.788;4.940;2023-09-07T03:00:26;13.83;;;12.53;;
13609;SDS011;6876;50.788;4.940;2023-09-07T03:03:15;15.07;;;12.40;;
13609;SDS011;6876;50.788;4.940;2023-09-07T03:06:07;13.97;;;12.77;;
13609;SDS011;6876;50.788;4.940;2023-09-07T03:08:55;15.00;;;13.37;;
13609;SDS011;6876;50.788;4.940;2023-09-07T03:11:42;16.33;;;14.83;;
13609;SDS011;6876;50.788;4.940;2023-09-07T03:14:30;18.57;;;16.67;;
13609;SDS011;6876;50.788;4.940;2023-09-07T03:17:17;17.63;;;16.03;;
13609;SDS011;6876;50.788;4.940;2023-09-07T03:20:08;18.03;;;16.00;;
13609;SDS011;6876;50.788;4.940;2023-09-07T03:22:59;18.40;;;16.60;;
13609;SDS011;6876;50.788;4.940;2023-09-07T03:25:46;18.07;;;16.47;;
13609;SDS011;6876;50.788;4.940;2023-09-07T03:28:34;19.70;;;18.00;;
13609;SDS011;6876;50.788;4.940;2023-09-07T03:31:21;19.30;;;17.50;;
13609;SDS011;6876;50.788;4.940;2023-09-07T03:34:09;18.93;;;17.13;;
13609;SDS011;6876;50.788;4.940;2023-09-07T03:36:57;18.70;;;17.07;;
13609;SDS011;6876;50.788;4.940;2023-09-07T03:39:45;18.03;;;16.43;;
13609;SDS011;6876;50.788;4.940;2023-09-07T03:42:32;18.50;;;16.83;;
13609;SDS011;6876;50.788;4.940;2023-09-07T03:45:19;19.70;;;17.90;;
13609;SDS011;6876;50.788;4.940;2023-09-07T03:48:07;18.90;;;17.13;;
13609;SDS011;6876;50.788;4.940;2023-09-07T03:50:54;18.77;;;17.23;;
13609;SDS011;6876;50.788;4.940;2023-09-07T03:53:43;19.17;;;17.47;;
13609;SDS011;6876;50.788;4.940;2023-09-07T03:56:31;19.80;;;18.07;;
13609;SDS011;6876;50.788;4.940;2023-09-07T03:59:18;18.83;;;17.23;;
13609;SDS011;6876;50.788;4.940;2023-09-07T04:02:06;20.33;;;18.33;;
13609;SDS011;6876;50.788;4.940;2023-09-07T04:04:54;19.13;;;17.23;;
13609;SDS011;6876;50.788;4.940;2023-09-07T04:07:41;30.83;;;28.03;;
13609;SDS011;6876;50.788;4.940;2023-09-07T04:10:30;31.20;;;28.60;;
13609;SDS011;6876;50.788;4.940;2023-09-07T04:13:17;32.00;;;29.60;;
13609;SDS011;6876;50.788;4.940;2023-09-07T04:16:05;50.53;;;46.60;;
13609;SDS011;6876;50.788;4.940;2023-09-07T04:18:52;44.80;;;41.60;;
13609;SDS011;6876;50.788;4.940;2023-09-07T04:21:39;44.80;;;41.63;;
13609;SDS011;6876;50.788;4.940;2023-09-07T04:24:27;33.93;;;31.57;;
13609;SDS011;6876;50.788;4.940;2023-09-07T04:27:16;34.53;;;32.07;;
13609;SDS011;6876;50.788;4.940;2023-09-07T04:30:04;35.70;;;33.17;;
13609;SDS011;6876;50.788;4.940;2023-09-07T04:32:52;28.60;;;26.50;;
13609;SDS011;6876;50.788;4.940;2023-09-07T04:35:39;32.87;;;30.23;;
13609;SDS011;6876;50.788;4.940;2023-09-07T04:38:27;35.87;;;33.27;;
13609;SDS011;6876;50.788;4.940;2023-09-07T04:41:14;32.40;;;29.90;;
13609;SDS011;6876;50.788;4.940;2023-09-07T04:44:03;29.70;;;27.40;;
13609;SDS011;6876;50.788;4.940;2023-09-07T04:46:50;29.63;;;27.43;;
13609;SDS011;6876;50.788;4.940;2023-09-07T04:49:38;29.27;;;26.87;;
13609;SDS011;6876;50.788;4.940;2023-09-07T04:52:25;20.53;;;18.47;;
13609;SDS011;6876;50.788;4.940;2023-09-07T04:55:12;28.93;;;21.70;;
13609;SDS011;6876;50.788;4.940;2023-09-07T04:58:00;26.53;;;20.60;;
13609;SDS011;6876;50.788;4.940;2023-09-07T05:00:48;20.00;;;18.20;;
13609;SDS011;6876;50.788;4.940;2023-09-07T05:03:36;20.90;;;19.10;;
13609;SDS011;6876;50.788;4.940;2023-09-07T05:06:25;20.60;;;18.67;;
13609;SDS011;6876;50.788;4.940;2023-09-07T05:09:12;22.83;;;20.43;;
13609;SDS011;6876;50.788;4.940;2023-09-07T05:12:00;31.17;;;28.97;;
13609;SDS011;6876;50.788;4.940;2023-09-07T05:14:47;23.43;;;21.30;;
13609;SDS011;6876;50.788;4.940;2023-09-07T05:17:36;94.10;;;28.47;;
13609;SDS011;6876;50.788;4.940;2023-09-07T05:20:23;49.73;;;18.73;;
13609;SDS011;6876;50.788;4.940;2023-09-07T05:23:11;26.90;;;24.47;;
13609;SDS011;6876;50.788;4.940;2023-09-07T05:26:01;21.83;;;15.73;;
13609;SDS011;6876;50.788;4.940;2023-09-07T05:28:48;19.67;;;17.60;;
13609;SDS011;6876;50.788;4.940;2023-09-07T05:31:35;22.83;;;20.40;;
13609;SDS011;6876;50.788;4.940;2023-09-07T05:34:24;19.23;;;17.40;;
13609;SDS011;6876;50.788;4.940;2023-09-07T05:37:11;18.80;;;16.47;;
13609;SDS011;6876;50.788;4.940;2023-09-07T05:39:59;22.73;;;16.63;;
13609;SDS011;6876;50.788;4.940;2023-09-07T05:42:46;27.57;;;17.93;;
13609;SDS011;6876;50.788;4.940;2023-09-07T05:45:34;17.50;;;13.53;;
13609;SDS011;6876;50.788;4.940;2023-09-07T05:48:23;11.90;;;10.37;;
13609;SDS011;6876;50.788;4.940;2023-09-07T05:51:11;16.80;;;14.97;;
13609;SDS011;6876;50.788;4.940;2023-09-07T05:53:59;183.37;;;20.87;;
13609;SDS011;6876;50.788;4.940;2023-09-07T05:56:46;22.07;;;13.03;;
13609;SDS011;6876;50.788;4.940;2023-09-07T05:59:33;26.67;;;13.00;;
13609;SDS011;6876;50.788;4.940;2023-09-07T06:02:21;13.93;;;11.27;;
13609;SDS011;6876;50.788;4.940;2023-09-07T06:05:08;14.20;;;9.50;;
13609;SDS011;6876;50.788;4.940;2023-09-07T06:07:57;15.50;;;9.38;;
13609;SDS011;6876;50.788;4.940;2023-09-07T06:10:44;11.40;;;7.97;;
13609;SDS011;6876;50.788;4.940;2023-09-07T06:13:32;12.45;;;8.05;;
13609;SDS011;6876;50.788;4.940;2023-09-07T06:16:19;17.85;;;8.20;;
13609;SDS011;6876;50.788;4.940;2023-09-07T06:19:06;572.78;;;42.40;;
13609;SDS011;6876;50.788;4.940;2023-09-07T06:21:54;27.40;;;9.65;;
13609;SDS011;6876;50.788;4.940;2023-09-07T06:24:42;14.38;;;8.75;;
13609;SDS011;6876;50.788;4.940;2023-09-07T06:27:29;21.83;;;9.05;;
13609;SDS011;6876;50.788;4.940;2023-09-07T06:30:17;18.25;;;8.68;;
13609;SDS011;6876;50.788;4.940;2023-09-07T06:33:05;20.50;;;9.10;;
13609;SDS011;6876;50.788;4.940;2023-09-07T06:35:52;15.23;;;9.73;;
13609;SDS011;6876;50.788;4.940;2023-09-07T06:38:39;11.27;;;10.10;;
13609;SDS011;6876;50.788;4.940;2023-09-07T06:41:28;16.30;;;10.45;;
13609;SDS011;6876;50.788;4.940;2023-09-07T06:44:15;11.05;;;9.68;;
13609;SDS011;6876;50.788;4.940;2023-09-07T06:47:03;10.95;;;9.75;;
13609;SDS011;6876;50.788;4.940;2023-09-07T06:49:50;10.40;;;8.68;;
13609;SDS011;6876;50.788;4.940;2023-09-07T06:52:37;11.55;;;9.55;;
13609;SDS011;6876;50.788;4.940;2023-09-07T06:55:25;10.90;;;8.82;;
13609;SDS011;6876;50.788;4.940;2023-09-07T06:58:13;10.68;;;8.70;;
13609;SDS011;6876;50.788;4.940;2023-09-07T07:01:01;9.57;;;8.63;;
13609;SDS011;6876;50.788;4.940;2023-09-07T07:03:49;10.10;;;9.02;;
13609;SDS011;6876;50.788;4.940;2023-09-07T07:06:38;10.95;;;8.50;;
13609;SDS011;6876;50.788;4.940;2023-09-07T07:09:25;9.45;;;8.20;;
13609;SDS011;6876;50.788;4.940;2023-09-07T07:12:13;11.73;;;8.82;;
13609;SDS011;6876;50.788;4.940;2023-09-07T07:15:02;9.43;;;8.52;;
13609;SDS011;6876;50.788;4.940;2023-09-07T07:17:50;9.55;;;8.68;;
13609;SDS011;6876;50.788;4.940;2023-09-07T07:20:37;21.80;;;8.73;;
13609;SDS011;6876;50.788;4.940;2023-09-07T07:23:26;9.77;;;8.73;;
13609;SDS011;6876;50.788;4.940;2023-09-07T07:26:13;10.65;;;8.63;;
13609;SDS011;6876;50.788;4.940;2023-09-07T07:29:01;8.13;;;7.32;;
13609;SDS011;6876;50.788;4.940;2023-09-07T07:31:49;9.50;;;8.50;;
13609;SDS011;6876;50.788;4.940;2023-09-07T07:34:37;12.90;;;8.10;;
13609;SDS011;6876;50.788;4.940;2023-09-07T07:37:24;9.07;;;8.23;;
13609;SDS011;6876;50.788;4.940;2023-09-07T07:40:11;8.55;;;7.75;;
13609;SDS011;6876;50.788;4.940;2023-09-07T07:42:59;12.85;;;8.32;;
13609;SDS011;6876;50.788;4.940;2023-09-07T07:45:46;10.43;;;8.40;;
13609;SDS011;6876;50.788;4.940;2023-09-07T07:48:35;9.48;;;8.23;;
13609;SDS011;6876;50.788;4.940;2023-09-07T07:51:22;9.27;;;7.85;;
13609;SDS011;6876;50.788;4.940;2023-09-07T07:54:09;8.35;;;7.60;;
13609;SDS011;6876;50.788;4.940;2023-09-07T07:56:56;8.60;;;7.80;;
13609;SDS011;6876;50.788;4.940;2023-09-07T07:59:44;8.77;;;7.15;;
13609;SDS011;6876;50.788;4.940;2023-09-07T08:02:31;8.77;;;7.78;;
13609;SDS011;6876;50.788;4.940;2023-09-07T08:05:20;8.95;;;7.80;;
13609;SDS011;6876;50.788;4.940;2023-09-07T08:08:07;8.73;;;7.47;;
13609;SDS011;6876;50.788;4.940;2023-09-07T08:10:54;8.13;;;7.43;;
13609;SDS011;6876;50.788;4.940;2023-09-07T08:13:43;8.05;;;7.32;;
13609;SDS011;6876;50.788;4.940;2023-09-07T08:16:31;8.25;;;7.45;;
13609;SDS011;6876;50.788;4.940;2023-09-07T08:19:19;9.98;;;7.45;;
13609;SDS011;6876;50.788;4.940;2023-09-07T08:22:08;9.30;;;7.57;;
13609;SDS011;6876;50.788;4.940;2023-09-07T08:24:55;7.65;;;7.00;;
13609;SDS011;6876;50.788;4.940;2023-09-07T08:27:44;9.60;;;6.80;;
13609;SDS011;6876;50.788;4.940;2023-09-07T08:30:32;7.20;;;6.38;;
13609;SDS011;6876;50.788;4.940;2023-09-07T08:33:20;6.15;;;5.65;;
13609;SDS011;6876;50.788;4.940;2023-09-07T08:36:14;7.75;;;5.60;;
13609;SDS011;6876;50.788;4.940;2023-09-07T08:39:04;6.93;;;5.28;;
13609;SDS011;6876;50.788;4.940;2023-09-07T08:41:55;7.35;;;4.43;;
13609;SDS011;6876;50.788;4.940;2023-09-07T08:44:43;5.63;;;4.30;;
13609;SDS011;6876;50.788;4.940;2023-09-07T08:47:33;4.15;;;3.75;;
13609;SDS011;6876;50.788;4.940;2023-09-07T08:50:22;4.90;;;4.03;;
13609;SDS011;6876;50.788;4.940;2023-09-07T08:53:10;4.57;;;4.07;;
13609;SDS011;6876;50.788;4.940;2023-09-07T08:55:59;6.90;;;4.22;;
13609;SDS011;6876;50.788;4.940;2023-09-07T08:58:47;4.60;;;4.20;;
13609;SDS011;6876;50.788;4.940;2023-09-07T09:01:35;4.70;;;4.38;;
13609;SDS011;6876;50.788;4.940;2023-09-07T09:04:23;4.28;;;3.88;;
13609;SDS011;6876;50.788;4.940;2023-09-07T09:07:10;9.77;;;3.80;;
13609;SDS011;6876;50.788;4.940;2023-09-07T09:10:04;4.40;;;3.38;;
13609;SDS011;6876;50.788;4.940;2023-09-07T09:12:54;4.93;;;3.47;;
13609;SDS011;6876;50.788;4.940;2023-09-07T09:15:41;3.58;;;2.90;;
13609;SDS011;6876;50.788;4.940;2023-09-07T09:18:28;8.40;;;3.10;;
13609;SDS011;6876;50.788;4.940;2023-09-07T09:21:16;5.65;;;3.10;;
13609;SDS011;6876;50.788;4.940;2023-09-07T09:24:03;5.15;;;2.78;;
13609;SDS011;6876;50.788;4.940;2023-09-07T09:26:57;4.20;;;2.80;;
13609;SDS011;6876;50.788;4.940;2023-09-07T09:29:46;8.60;;;3.15;;
13609;SDS011;6876;50.788;4.940;2023-09-07T09:32:33;4.53;;;3.15;;
13609;SDS011;6876;50.788;4.940;2023-09-07T09:35:21;5.10;;;3.10;;
13609;SDS011;6876;50.788;4.940;2023-09-07T09:38:12;7.60;;;2.88;;
13609;SDS011;6876;50.788;4.940;2023-09-07T09:41:00;8.13;;;3.78;;
13609;SDS011;6876;50.788;4.940;2023-09-07T09:43:48;3.55;;;2.75;;
13609;SDS011;6876;50.788;4.940;2023-09-07T09:46:38;5.93;;;3.20;;
13609;SDS011;6876;50.788;4.940;2023-09-07T09:49:26;3.00;;;2.80;;
13609;SDS011;6876;50.788;4.940;2023-09-07T09:52:15;3.58;;;3.10;;
13609;SDS011;6876;50.788;4.940;2023-09-07T09:55:06;3.92;;;2.80;;
13609;SDS011;6876;50.788;4.940;2023-09-07T09:57:58;2.90;;;2.60;;
13609;SDS011;6876;50.788;4.940;2023-09-07T10:00:46;3.08;;;2.78;;
13609;SDS011;6876;50.788;4.940;2023-09-07T10:03:36;4.25;;;2.83;;
13609;SDS011;6876;50.788;4.940;2023-09-07T10:06:31;3.42;;;2.83;;
13609;SDS011;6876;50.788;4.940;2023-09-07T10:09:19;4.10;;;2.90;;
13609;SDS011;6876;50.788;4.940;2023-09-07T10:12:11;4.57;;;2.92;;
13609;SDS011;6876;50.788;4.940;2023-09-07T10:14:58;3.97;;;2.80;;
13609;SDS011;6876;50.788;4.940;2023-09-07T10:17:46;5.32;;;2.80;;
13609;SDS011;6876;50.788;4.940;2023-09-07T10:20:50;3.47;;;2.65;;
13609;SDS011;6876;50.788;4.940;2023-09-07T10:23:40;5.72;;;3.20;;
13609;SDS011;6876;50.788;4.940;2023-09-07T10:26:28;6.57;;;3.05;;
13609;SDS011;6876;50.788;4.940;2023-09-07T10:29:15;5.93;;;3.13;;
13609;SDS011;6876;50.788;4.940;2023-09-07T10:32:05;4.07;;;3.05;;
13609;SDS011;6876;50.788;4.940;2023-09-07T10:34:54;6.55;;;3.47;;
13609;SDS011;6876;50.788;4.940;2023-09-07T10:37:44;4.72;;;3.25;;
13609;SDS011;6876;50.788;4.940;2023-09-07T10:40:33;3.53;;;3.22;;
13609;SDS011;6876;50.788;4.940;2023-09-07T10:43:20;7.75;;;3.50;;
13609;SDS011;6876;50.788;4.940;2023-09-07T10:46:07;4.90;;;3.88;;
13609;SDS011;6876;50.788;4.940;2023-09-07T10:48:55;14.07;;;3.40;;
13609;SDS011;6876;50.788;4.940;2023-09-07T10:51:43;5.80;;;3.58;;
13609;SDS011;6876;50.788;4.940;2023-09-07T10:54:33;4.43;;;3.10;;
13609;SDS011;6876;50.788;4.940;2023-09-07T10:57:21;5.30;;;3.63;;
13609;SDS011;6876;50.788;4.940;2023-09-07T11:00:08;5.55;;;3.17;;
13609;SDS011;6876;50.788;4.940;2023-09-07T11:02:57;3.80;;;3.40;;
13609;SDS011;6876;50.788;4.940;2023-09-07T11:05:44;3.60;;;3.30;;
13609;SDS011;6876;50.788;4.940;2023-09-07T11:08:31;3.88;;;3.38;;
13609;SDS011;6876;50.788;4.940;2023-09-07T11:11:22;3.40;;;3.08;;
13609;SDS011;6876;50.788;4.940;2023-09-07T11:14:09;4.55;;;3.30;;
13609;SDS011;6876;50.788;4.940;2023-09-07T11:16:57;6.80;;;3.63;;
13609;SDS011;6876;50.788;4.940;2023-09-07T11:19:44;5.97;;;3.60;;
13609;SDS011;6876;50.788;4.940;2023-09-07T11:22:37;6.90;;;3.85;;
13609;SDS011;6876;50.788;4.940;2023-09-07T11:25:25;5.70;;;3.60;;
13609;SDS011;6876;50.788;4.940;2023-09-07T11:28:15;4.88;;;3.65;;
13609;SDS011;6876;50.788;4.940;2023-09-07T11:31:04;9.20;;;4.07;;
13609;SDS011;6876;50.788;4.940;2023-09-07T11:33:53;7.90;;;4.40;;
13609;SDS011;6876;50.788;4.940;2023-09-07T11:36:42;7.10;;;3.90;;
13609;SDS011;6876;50.788;4.940;2023-09-07T11:39:30;4.47;;;3.67;;
13609;SDS011;6876;50.788;4.940;2023-09-07T11:42:17;6.00;;;4.10;;
13609;SDS011;6876;50.788;4.940;2023-09-07T11:45:07;4.30;;;3.92;;
13609;SDS011;6876;50.788;4.940;2023-09-07T11:47:55;7.18;;;3.58;;
13609;SDS011;6876;50.788;4.940;2023-09-07T11:50:43;5.90;;;3.90;;
13609;SDS011;6876;50.788;4.940;2023-09-07T11:53:30;4.65;;;3.47;;
13609;SDS011;6876;50.788;4.940;2023-09-07T11:56:17;5.45;;;3.38;;
13609;SDS011;6876;50.788;4.940;2023-09-07T11:59:05;10.43;;;3.75;;
13609;SDS011;6876;50.788;4.940;2023-09-07T12:01:53;9.27;;;3.58;;
13609;SDS011;6876;50.788;4.940;2023-09-07T12:04:41;4.90;;;3.67;;
13609;SDS011;6876;50.788;4.940;2023-09-07T12:07:28;9.43;;;3.58;;
13609;SDS011;6876;50.788;4.940;2023-09-07T12:10:15;6.30;;;3.50;;
13609;SDS011;6876;50.788;4.940;2023-09-07T12:13:03;4.55;;;3.15;;
13609;SDS011;6876;50.788;4.940;2023-09-07T12:15:50;5.97;;;3.40;;
13609;SDS011;6876;50.788;4.940;2023-09-07T12:18:39;8.27;;;3.80;;
13609;SDS011;6876;50.788;4.940;2023-09-07T12:21:26;3.17;;;2.97;;
13609;SDS011;6876;50.788;4.940;2023-09-07T12:24:14;10.07;;;3.90;;
13609;SDS011;6876;50.788;4.940;2023-09-07T12:27:01;5.93;;;3.50;;
13609;SDS011;6876;50.788;4.940;2023-09-07T12:29:48;5.65;;;3.78;;
13609;SDS011;6876;50.788;4.940;2023-09-07T12:32:36;4.78;;;3.28;;
13609;SDS011;6876;50.788;4.940;2023-09-07T12:35:24;5.88;;;3.70;;
13609;SDS011;6876;50.788;4.940;2023-09-07T12:38:12;4.80;;;3.60;;
13609;SDS011;6876;50.788;4.940;2023-09-07T12:41:03;7.95;;;3.80;;
13609;SDS011;6876;50.788;4.940;2023-09-07T12:43:50;7.05;;;3.17;;
13609;SDS011;6876;50.788;4.940;2023-09-07T12:46:38;5.68;;;3.38;;
13609;SDS011;6876;50.788;4.940;2023-09-07T12:49:25;6.13;;;3.60;;
13609;SDS011;6876;50.788;4.940;2023-09-07T12:52:13;9.15;;;3.83;;
13609;SDS011;6876;50.788;4.940;2023-09-07T12:55:01;4.13;;;3.55;;
13609;SDS011;6876;50.788;4.940;2023-09-07T12:57:48;5.97;;;3.75;;
13609;SDS011;6876;50.788;4.940;2023-09-07T13:00:36;9.23;;;3.58;;
13609;SDS011;6876;50.788;4.940;2023-09-07T13:03:23;8.43;;;3.67;;
13609;SDS011;6876;50.788;4.940;2023-09-07T13:06:10;7.45;;;3.38;;
13609;SDS011;6876;50.788;4.940;2023-09-07T13:08:59;3.75;;;3.33;;
13609;SDS011;6876;50.788;4.940;2023-09-07T13:11:46;4.20;;;3.30;;
13609;SDS011;6876;50.788;4.940;2023-09-07T13:14:33;7.35;;;3.53;;
13609;SDS011;6876;50.788;4.940;2023-09-07T13:17:21;6.22;;;3.65;;
13609;SDS011;6876;50.788;4.940;2023-09-07T13:20:08;3.75;;;3.25;;
13609;SDS011;6876;50.788;4.940;2023-09-07T13:22:57;6.38;;;4.00;;
13609;SDS011;6876;50.788;4.940;2023-09-07T13:25:46;5.57;;;3.60;;
13609;SDS011;6876;50.788;4.940;2023-09-07T13:28:34;9.98;;;4.10;;
13609;SDS011;6876;50.788;4.940;2023-09-07T13:31:21;5.13;;;3.85;;
13609;SDS011;6876;50.788;4.940;2023-09-07T13:34:08;5.75;;;3.72;;
13609;SDS011;6876;50.788;4.940;2023-09-07T13:36:56;6.25;;;3.70;;
13609;SDS011;6876;50.788;4.940;2023-09-07T13:39:43;8.15;;;3.90;;
13609;SDS011;6876;50.788;4.940;2023-09-07T13:42:32;7.25;;;3.95;;
13609;SDS011;6876;50.788;4.940;2023-09-07T13:45:19;4.47;;;3.47;;
13609;SDS011;6876;50.788;4.940;2023-09-07T13:48:07;5.95;;;3.70;;
13609;SDS011;6876;50.788;4.940;2023-09-07T13:50:54;6.88;;;3.70;;
13609;SDS011;6876;50.788;4.940;2023-09-07T13:53:41;6.13;;;4.13;;
13609;SDS011;6876;50.788;4.940;2023-09-07T13:56:29;4.50;;;4.05;;
13609;SDS011;6876;50.788;4.940;2023-09-07T13:59:17;5.72;;;4.00;;
13609;SDS011;6876;50.788;4.940;2023-09-07T14:02:05;5.70;;;3.90;;
13609;SDS011;6876;50.788;4.940;2023-09-07T14:04:52;5.97;;;3.55;;
13609;SDS011;6876;50.788;4.940;2023-09-07T14:07:39;5.90;;;3.88;;
13609;SDS011;6876;50.788;4.940;2023-09-07T14:10:27;7.70;;;3.90;;
13609;SDS011;6876;50.788;4.940;2023-09-07T14:13:14;4.95;;;3.60;;
13609;SDS011;6876;50.788;4.940;2023-09-07T14:16:03;7.45;;;4.28;;
13609;SDS011;6876;50.788;4.940;2023-09-07T14:18:51;6.28;;;3.50;;
13609;SDS011;6876;50.788;4.940;2023-09-07T14:21:38;7.68;;;3.75;;
13609;SDS011;6876;50.788;4.940;2023-09-07T14:24:25;7.28;;;3.90;;
13609;SDS011;6876;50.788;4.940;2023-09-07T14:27:13;4.75;;;3.90;;
13609;SDS011;6876;50.788;4.940;2023-09-07T14:30:00;3.50;;;3.20;;
13609;SDS011;6876;50.788;4.940;2023-09-07T14:32:49;6.10;;;3.90;;
13609;SDS011;6876;50.788;4.940;2023-09-07T14:35:36;17.88;;;4.20;;
13609;SDS011;6876;50.788;4.940;2023-09-07T14:38:26;5.93;;;3.60;;
13609;SDS011;6876;50.788;4.940;2023-09-07T14:41:15;5.13;;;4.10;;
13609;SDS011;6876;50.788;4.940;2023-09-07T14:44:05;11.20;;;4.40;;
13609;SDS011;6876;50.788;4.940;2023-09-07T14:46:58;8.90;;;4.00;;
13609;SDS011;6876;50.788;4.940;2023-09-07T14:49:47;8.90;;;4.30;;
13609;SDS011;6876;50.788;4.940;2023-09-07T14:52:35;15.60;;;4.43;;
13609;SDS011;6876;50.788;4.940;2023-09-07T14:55:26;7.43;;;3.95;;
13609;SDS011;6876;50.788;4.940;2023-09-07T14:58:13;24.70;;;5.10;;
13609;SDS011;6876;50.788;4.940;2023-09-07T15:01:04;6.25;;;4.22;;
13609;SDS011;6876;50.788;4.940;2023-09-07T15:03:51;5.20;;;4.13;;
13609;SDS011;6876;50.788;4.940;2023-09-07T15:06:41;5.93;;;4.20;;
13609;SDS011;6876;50.788;4.940;2023-09-07T15:09:28;6.82;;;3.95;;
13609;SDS011;6876;50.788;4.940;2023-09-07T15:12:15;5.07;;;3.63;;
13609;SDS011;6876;50.788;4.940;2023-09-07T15:15:03;6.90;;;3.97;;
13609;SDS011;6876;50.788;4.940;2023-09-07T15:17:52;6.22;;;4.03;;
13609;SDS011;6876;50.788;4.940;2023-09-07T15:20:39;8.98;;;4.15;;
13609;SDS011;6876;50.788;4.940;2023-09-07T15:23:28;20.00;;;4.65;;
13609;SDS011;6876;50.788;4.940;2023-09-07T15:26:15;4.72;;;4.07;;
13609;SDS011;6876;50.788;4.940;2023-09-07T15:29:03;6.05;;;4.18;;
13609;SDS011;6876;50.788;4.940;2023-09-07T15:31:50;6.95;;;3.75;;
13609;SDS011;6876;50.788;4.940;2023-09-07T15:34:38;4.00;;;3.60;;
13609;SDS011;6876;50.788;4.940;2023-09-07T15:37:27;4.40;;;3.95;;
13609;SDS011;6876;50.788;4.940;2023-09-07T15:40:16;9.73;;;3.92;;
13609;SDS011;6876;50.788;4.940;2023-09-07T15:43:03;4.72;;;3.78;;
13609;SDS011;6876;50.788;4.940;2023-09-07T15:45:51;4.25;;;3.80;;
13609;SDS011;6876;50.788;4.940;2023-09-07T15:48:39;6.70;;;4.22;;
13609;SDS011;6876;50.788;4.940;2023-09-07T15:51:26;7.55;;;3.72;;
13609;SDS011;6876;50.788;4.940;2023-09-07T15:54:14;5.53;;;3.95;;
13609;SDS011;6876;50.788;4.940;2023-09-07T15:57:03;5.45;;;3.90;;
13609;SDS011;6876;50.788;4.940;2023-09-07T15:59:51;5.05;;;4.20;;
13609;SDS011;6876;50.788;4.940;2023-09-07T16:02:38;6.10;;;4.05;;
13609;SDS011;6876;50.788;4.940;2023-09-07T16:05:25;7.57;;;4.18;;
13609;SDS011;6876;50.788;4.940;2023-09-07T16:08:12;8.40;;;4.18;;
13609;SDS011;6876;50.788;4.940;2023-09-07T16:11:00;4.47;;;4.00;;
13609;SDS011;6876;50.788;4.940;2023-09-07T16:13:48;6.50;;;4.07;;
13609;SDS011;6876;50.788;4.940;2023-09-07T16:16:36;8.73;;;3.92;;
13609;SDS011;6876;50.788;4.940;2023-09-07T16:19:23;8.20;;;4.25;;
13609;SDS011;6876;50.788;4.940;2023-09-07T16:22:12;6.05;;;3.75;;
13609;SDS011;6876;50.788;4.940;2023-09-07T16:24:59;6.90;;;4.28;;
13609;SDS011;6876;50.788;4.940;2023-09-07T16:27:46;8.07;;;4.55;;
13609;SDS011;6876;50.788;4.940;2023-09-07T16:30:35;6.00;;;4.65;;
13609;SDS011;6876;50.788;4.940;2023-09-07T16:33:22;6.90;;;4.38;;
13609;SDS011;6876;50.788;4.940;2023-09-07T16:36:10;8.15;;;4.38;;
13609;SDS011;6876;50.788;4.940;2023-09-07T16:38:57;6.32;;;3.85;;
13609;SDS011;6876;50.788;4.940;2023-09-07T16:41:45;9.48;;;4.40;;
13609;SDS011;6876;50.788;4.940;2023-09-07T16:44:32;4.53;;;4.07;;
13609;SDS011;6876;50.788;4.940;2023-09-07T16:47:21;7.10;;;4.25;;
13609;SDS011;6876;50.788;4.940;2023-09-07T16:50:08;4.72;;;4.18;;
13609;SDS011;6876;50.788;4.940;2023-09-07T16:52:56;16.30;;;5.32;;
13609;SDS011;6876;50.788;4.940;2023-09-07T16:55:43;4.93;;;4.22;;